createdAt,value
2023-04-11T00:01:14.674Z,14.20
2023-04-11T00:04:20.637Z,14.20
2023-04-11T00:07:23.852Z,14.30
2023-04-11T00:10:26.695Z,14.20
2023-04-11T00:13:29.510Z,14.20
2023-04-11T00:16:34.355Z,14.20
2023-04-11T00:19:37.552Z,14.10
2023-04-11T00:22:40.610Z,14.10
2023-04-11T00:25:43.610Z,14.20
2023-04-11T00:28:46.414Z,14.20
2023-04-11T00:31:52.764Z,14.00
2023-04-11T00:34:56.239Z,14.00
2023-04-11T00:38:01.264Z,14.10
2023-04-11T00:41:04.523Z,14.10
2023-04-11T00:44:07.464Z,14.00
2023-04-11T00:47:11.824Z,14.10
2023-04-11T00:50:15.888Z,14.10
2023-04-11T00:53:19.106Z,14.00
2023-04-11T00:56:23.050Z,14.00
2023-04-11T00:59:26.695Z,14.00
2023-04-11T01:02:32.078Z,13.90
2023-04-11T01:05:36.312Z,14.00
2023-04-11T01:08:41.157Z,13.90
2023-04-11T01:11:44.121Z,13.90
2023-04-11T01:14:47.786Z,13.90
2023-04-11T01:17:52.941Z,14.00
2023-04-11T01:20:55.923Z,14.00
2023-04-11T01:24:03.671Z,14.00
2023-04-11T01:27:06.472Z,14.10
2023-04-11T01:30:12.363Z,14.10
2023-04-11T01:33:17.303Z,14.20
2023-04-11T01:36:20.365Z,14.30
2023-04-11T01:39:24.764Z,14.30
2023-04-11T01:42:29.393Z,14.20
2023-04-11T01:45:33.411Z,14.20
2023-04-11T01:48:36.376Z,14.20
2023-04-11T01:51:39.274Z,14.20
2023-04-11T01:54:43.434Z,14.20
2023-04-11T01:57:46.224Z,14.20
2023-04-11T02:00:49.031Z,14.00
2023-04-11T02:03:52.860Z,13.90
2023-04-11T02:06:55.768Z,14.00
2023-04-11T02:10:01.013Z,14.10
2023-04-11T02:13:03.837Z,14.20
2023-04-11T02:16:11.562Z,14.30
2023-04-11T02:19:14.437Z,14.30
2023-04-11T02:22:17.297Z,14.30
2023-04-11T02:25:21.501Z,14.30
2023-04-11T02:28:24.297Z,14.30
2023-04-11T02:31:27.539Z,14.40
2023-04-11T02:34:30.812Z,14.30
2023-04-11T02:37:33.600Z,14.30
2023-04-11T02:40:37.732Z,14.30
2023-04-11T02:43:40.577Z,14.40
2023-04-11T02:46:43.423Z,14.40
2023-04-11T02:49:46.224Z,14.50
2023-04-11T02:52:49.836Z,14.50
2023-04-11T02:55:54.030Z,14.40
2023-04-11T02:58:57.192Z,14.50
2023-04-11T03:02:00.916Z,14.50
2023-04-11T03:05:04.587Z,14.50
2023-04-11T03:08:09.033Z,14.60
2023-04-11T03:11:13.249Z,14.50
2023-04-11T03:14:16.243Z,14.60
2023-04-11T03:17:19.223Z,14.60
2023-04-11T03:20:22.018Z,14.60
2023-04-11T03:23:24.799Z,14.60
2023-04-11T03:26:28.992Z,14.60
2023-04-11T03:29:31.903Z,14.60
2023-04-11T03:32:34.750Z,14.70
2023-04-11T03:35:37.730Z,14.60
2023-04-11T03:38:40.632Z,14.60
2023-04-11T03:41:44.903Z,14.50
2023-04-11T03:44:47.679Z,14.50
2023-04-11T03:47:50.594Z,14.60
2023-04-11T03:50:53.924Z,14.50
2023-04-11T03:53:56.697Z,14.40
2023-04-11T03:57:01.098Z,14.40
2023-04-11T04:00:05.743Z,14.30
2023-04-11T04:03:08.689Z,14.40
2023-04-11T04:06:11.636Z,14.50
2023-04-11T04:09:14.410Z,14.50
2023-04-11T04:12:18.711Z,14.60
2023-04-11T04:15:21.583Z,14.60
2023-04-11T04:18:24.424Z,14.60
2023-04-11T04:21:32.469Z,14.60
2023-04-11T04:24:38.350Z,14.60
2023-04-11T04:27:44.401Z,14.50
2023-04-11T04:30:50.011Z,14.50
2023-04-11T04:33:52.881Z,14.60
2023-04-11T04:36:59.467Z,14.60
2023-04-11T04:40:07.720Z,14.60
2023-04-11T04:43:18.406Z,14.50
2023-04-11T04:46:21.464Z,14.50
2023-04-11T04:49:24.483Z,14.50
2023-04-11T04:52:28.530Z,14.30
2023-04-11T04:55:31.288Z,14.40
2023-04-11T04:58:35.645Z,14.30
2023-04-11T05:01:39.875Z,14.30
2023-04-11T05:04:44.724Z,14.30
2023-04-11T05:07:48.296Z,14.30
2023-04-11T05:10:51.057Z,14.20
2023-04-11T05:13:55.984Z,14.10
2023-04-11T05:16:59.149Z,14.10
2023-04-11T05:20:02.035Z,14.00
2023-04-11T05:23:04.838Z,13.90
2023-04-11T05:26:08.024Z,13.80
2023-04-11T05:29:12.544Z,13.70
2023-04-11T05:32:15.356Z,13.60
2023-04-11T05:35:18.161Z,13.60
2023-04-11T05:38:21.547Z,13.80
2023-04-11T05:41:24.305Z,13.90
2023-04-11T05:44:28.931Z,13.90
2023-04-11T05:47:32.164Z,13.90
2023-04-11T05:50:35.229Z,13.90
2023-04-11T05:53:38.053Z,13.90
2023-04-11T05:56:42.351Z,13.90
2023-04-11T05:59:49.746Z,13.70
2023-04-11T06:02:53.002Z,13.40
2023-04-11T06:05:55.936Z,13.40
2023-04-11T06:08:58.750Z,13.40
2023-04-11T06:12:01.705Z,13.50
2023-04-11T06:15:07.085Z,13.60
2023-04-11T06:18:09.939Z,13.60
2023-04-11T06:21:12.714Z,13.80
2023-04-11T06:24:18.098Z,13.90
2023-04-11T06:27:20.888Z,13.90
2023-04-11T06:30:25.289Z,13.90
2023-04-11T06:33:28.135Z,13.90
2023-04-11T06:36:31.396Z,13.70
2023-04-11T06:39:34.718Z,13.80
2023-04-11T06:42:37.481Z,13.90
2023-04-11T06:45:41.657Z,13.90
2023-04-11T06:48:44.444Z,13.90
2023-04-11T06:51:49.176Z,13.80
2023-04-11T06:54:51.972Z,13.70
2023-04-11T06:57:55.035Z,13.90
2023-04-11T07:00:59.180Z,13.90
2023-04-11T07:04:02.527Z,13.70
2023-04-11T07:07:05.698Z,13.70
2023-04-11T07:10:09.886Z,13.50
2023-04-11T07:13:12.679Z,13.50
2023-04-11T07:16:16.868Z,13.30
2023-04-11T07:19:19.667Z,13.30
2023-04-11T07:22:22.540Z,13.10
2023-04-11T07:25:30.476Z,13.10
2023-04-11T07:28:33.350Z,12.70
2023-04-11T07:31:38.134Z,12.70
2023-04-11T07:34:40.965Z,12.80
2023-04-11T07:37:43.841Z,12.50
2023-04-11T07:40:46.633Z,12.30
2023-04-11T07:43:49.439Z,12.30
2023-04-11T07:46:53.551Z,12.30
2023-04-11T07:49:56.326Z,12.40
2023-04-11T07:52:59.231Z,12.40
2023-04-11T07:56:02.076Z,12.50
2023-04-11T07:59:04.943Z,12.60
2023-04-11T08:02:09.244Z,12.70
2023-04-11T08:05:12.368Z,12.70
2023-04-11T08:08:15.253Z,12.70
2023-04-11T08:11:18.060Z,12.50
2023-04-11T08:14:20.907Z,12.50
2023-04-11T08:17:29.229Z,12.20
2023-04-11T08:20:32.314Z,12.20
2023-04-11T08:23:35.248Z,12.10
2023-04-11T08:26:38.046Z,12.00
2023-04-11T08:29:40.839Z,11.90
2023-04-11T08:32:45.160Z,11.90
2023-04-11T08:35:48.226Z,11.60
2023-04-11T08:38:51.049Z,11.50
2023-04-11T08:41:53.840Z,11.70
2023-04-11T08:44:58.069Z,11.80
2023-04-11T08:48:02.395Z,11.90
2023-04-11T08:51:05.572Z,11.80
2023-04-11T08:54:09.758Z,12.00
2023-04-11T08:57:21.885Z,12.00
2023-04-11T09:00:25.525Z,11.90
2023-04-11T09:03:31.584Z,11.80
2023-04-11T09:06:35.028Z,11.80
2023-04-11T09:09:39.243Z,11.70
2023-04-11T09:12:42.020Z,11.60
2023-04-11T09:15:45.215Z,11.40
2023-04-11T09:18:49.487Z,11.60
2023-04-11T09:21:53.497Z,11.50
2023-04-11T09:25:03.467Z,11.50
2023-04-11T09:28:11.131Z,11.60
2023-04-11T09:31:14.125Z,11.40
2023-04-11T09:34:25.937Z,11.40
2023-04-11T09:37:28.775Z,11.50
2023-04-11T09:40:42.292Z,11.50
2023-04-11T09:43:50.699Z,11.50
2023-04-11T09:47:00.603Z,11.60
2023-04-11T09:50:05.053Z,11.60
2023-04-11T09:53:09.985Z,11.50
2023-04-11T09:56:13.203Z,11.70
2023-04-11T09:59:16.400Z,11.50
2023-04-11T10:02:19.272Z,11.60
2023-04-11T10:05:27.870Z,11.80
2023-04-11T10:08:33.849Z,12.00
2023-04-11T10:11:36.982Z,12.10
2023-04-11T10:14:43.451Z,12.10
2023-04-11T10:18:10.878Z,12.00
2023-04-11T10:21:42.749Z,12.00
2023-04-11T10:25:17.655Z,11.90
2023-04-11T10:28:34.448Z,12.00
2023-04-11T10:32:02.227Z,11.90
2023-04-11T10:35:24.727Z,12.00
2023-04-11T10:38:48.266Z,12.20
2023-04-11T10:41:51.225Z,12.20
2023-04-11T10:45:15.421Z,12.30
2023-04-11T10:48:18.218Z,12.20
2023-04-11T10:51:25.015Z,12.20
2023-04-11T10:54:29.507Z,12.10
2023-04-11T10:58:05.619Z,12.20
2023-04-11T11:01:26.519Z,12.20
2023-04-11T11:04:36.616Z,12.20
2023-04-11T11:07:40.887Z,12.20
2023-04-11T11:10:47.187Z,12.20
2023-04-11T11:13:52.299Z,12.30
2023-04-11T11:16:55.238Z,12.40
2023-04-11T11:19:58.064Z,12.40
2023-04-11T11:23:05.405Z,12.50
2023-04-11T11:26:09.573Z,12.50
2023-04-11T11:29:12.455Z,12.40
2023-04-11T11:32:22.783Z,12.40
2023-04-11T11:35:26.165Z,12.40
2023-04-11T11:38:30.504Z,12.30
2023-04-11T11:41:35.955Z,12.30
2023-04-11T11:44:39.184Z,12.40
2023-04-11T11:47:42.935Z,12.50
2023-04-11T11:50:46.022Z,12.40
2023-04-11T11:54:03.595Z,12.30
2023-04-11T11:57:07.760Z,12.30
2023-04-11T12:00:11.885Z,12.20
2023-04-11T12:03:18.395Z,12.40
2023-04-11T12:06:21.819Z,12.70
2023-04-11T12:09:31.616Z,12.80
2023-04-11T12:12:37.729Z,12.90
2023-04-11T12:15:41.724Z,12.70
2023-04-11T12:18:45.456Z,12.70
2023-04-11T12:21:48.401Z,12.90
2023-04-11T12:24:53.081Z,13.10
2023-04-11T12:27:57.654Z,13.30
2023-04-11T12:31:00.483Z,13.50
2023-04-11T12:34:03.805Z,13.50
2023-04-11T12:37:06.764Z,13.40
2023-04-11T12:40:11.576Z,13.30
2023-04-11T12:43:15.855Z,13.50
2023-04-11T12:46:19.323Z,13.60
2023-04-11T12:49:22.146Z,13.60
2023-04-11T12:52:25.384Z,13.60
2023-04-11T12:55:28.703Z,13.70
2023-04-11T12:58:33.034Z,13.80
2023-04-11T13:01:36.847Z,14.00
2023-04-11T13:04:39.830Z,14.00
2023-04-11T13:07:44.421Z,14.00
2023-04-11T13:10:47.348Z,14.10
2023-04-11T13:13:52.304Z,14.00
2023-04-11T13:16:55.526Z,14.00
2023-04-11T13:19:58.320Z,13.80
2023-04-11T13:23:01.107Z,13.70
2023-04-11T13:26:04.148Z,13.60
2023-04-11T13:29:08.339Z,13.80
2023-04-11T13:32:11.155Z,14.00
2023-04-11T13:35:13.921Z,14.10
2023-04-11T13:38:16.709Z,14.20
2023-04-11T13:41:19.588Z,14.20
2023-04-11T13:44:23.939Z,14.30
2023-04-11T13:47:26.786Z,14.00
2023-04-11T13:50:29.596Z,13.90
2023-04-11T13:53:32.361Z,13.90
2023-04-11T13:56:36.411Z,13.80
2023-04-11T13:59:40.600Z,13.80
2023-04-11T14:02:44.501Z,14.00
2023-04-11T14:05:47.505Z,14.10
2023-04-11T14:08:51.061Z,14.30
2023-04-11T14:11:53.925Z,14.10
2023-04-11T14:14:58.059Z,14.10
2023-04-11T14:18:01.235Z,14.00
2023-04-11T14:21:05.723Z,13.90
2023-04-11T14:24:09.110Z,13.90
2023-04-11T14:27:11.928Z,13.90
2023-04-11T14:30:16.291Z,13.90
2023-04-11T14:33:19.824Z,13.90
2023-04-11T14:36:22.663Z,13.90
2023-04-11T14:39:25.618Z,14.00
2023-04-11T14:42:28.701Z,14.00
2023-04-11T14:45:33.032Z,13.90
2023-04-11T14:48:35.896Z,13.90
2023-04-11T14:51:38.811Z,13.80
2023-04-11T14:54:41.618Z,14.00
2023-04-11T14:57:46.942Z,14.00
2023-04-11T15:00:51.478Z,13.90
2023-04-11T15:03:54.643Z,13.90
2023-04-11T15:06:59.174Z,14.00
2023-04-11T15:10:02.175Z,13.90
2023-04-11T15:13:04.992Z,14.00
2023-04-11T15:16:09.750Z,14.00
2023-04-11T15:19:12.630Z,14.00
2023-04-11T15:22:15.406Z,14.10
2023-04-11T15:25:18.215Z,14.20
2023-04-11T15:28:21.267Z,14.20
2023-04-11T15:31:27.484Z,14.10
2023-04-11T15:34:30.367Z,14.20
2023-04-11T15:37:33.381Z,14.30
2023-04-11T15:40:36.275Z,14.30
2023-04-11T15:43:39.127Z,14.10
2023-04-11T15:46:43.924Z,13.90
2023-04-11T15:49:47.382Z,13.70
2023-04-11T15:52:50.265Z,13.70
2023-04-11T15:55:53.056Z,13.70
2023-04-11T15:58:55.914Z,13.60
2023-04-11T16:02:00.371Z,13.60
2023-04-11T16:05:03.907Z,13.60
2023-04-11T16:08:07.342Z,13.50
2023-04-11T16:11:10.137Z,13.50
2023-04-11T16:14:13.211Z,13.40
2023-04-11T16:17:18.976Z,13.30
2023-04-11T16:20:22.030Z,13.30
2023-04-11T16:23:24.863Z,13.10
2023-04-11T16:26:27.993Z,13.00
2023-04-11T16:29:30.830Z,12.70
2023-04-11T16:32:35.024Z,12.60
2023-04-11T16:35:37.914Z,12.50
2023-04-11T16:38:40.742Z,12.50
2023-04-11T16:41:44.100Z,12.40
2023-04-11T16:44:46.926Z,12.50
2023-04-11T16:47:51.120Z,12.50
2023-04-11T16:50:53.936Z,12.60
2023-04-11T16:53:57.420Z,12.60
2023-04-11T16:57:01.482Z,12.50
2023-04-11T17:00:16.485Z,12.50
2023-04-11T17:03:21.808Z,12.50
2023-04-11T17:06:24.859Z,12.60
2023-04-11T17:09:27.702Z,12.60
2023-04-11T17:12:31.537Z,12.50
2023-04-11T17:15:35.745Z,12.60
2023-04-11T17:18:40.717Z,12.70
2023-04-11T17:21:43.719Z,12.70
2023-04-11T17:24:46.860Z,12.70
2023-04-11T17:27:49.723Z,12.60
2023-04-11T17:30:53.317Z,12.50
2023-04-11T17:33:57.795Z,12.50
2023-04-11T17:37:00.919Z,12.30
2023-04-11T17:40:11.571Z,12.30
2023-04-11T17:43:14.388Z,12.20
2023-04-11T17:46:17.412Z,12.30
2023-04-11T17:49:21.647Z,12.20
2023-04-11T17:52:24.525Z,12.20
2023-04-11T17:55:27.386Z,12.20
2023-04-11T17:58:30.447Z,12.30
2023-04-11T18:01:33.353Z,12.00
2023-04-11T18:04:37.609Z,12.10
2023-04-11T18:07:41.946Z,12.10
2023-04-11T18:10:44.818Z,12.20
2023-04-11T18:13:50.060Z,12.10
2023-04-11T18:16:53.213Z,12.10
2023-04-11T18:19:57.970Z,12.10
2023-04-11T18:23:01.683Z,11.90
2023-04-11T18:26:04.522Z,12.00
2023-04-11T18:29:07.449Z,12.10
2023-04-11T18:32:10.255Z,12.00
2023-04-11T18:35:15.043Z,11.80
2023-04-11T18:38:17.971Z,11.70
2023-04-11T18:41:21.099Z,11.90
2023-04-11T18:44:24.213Z,11.90
2023-04-11T18:47:27.170Z,11.90
2023-04-11T18:50:31.446Z,12.10
2023-04-11T18:53:36.436Z,12.10
2023-04-11T18:56:40.568Z,12.00
2023-04-11T18:59:44.559Z,12.10
2023-04-11T19:02:50.616Z,12.20
2023-04-11T19:05:55.507Z,12.00
2023-04-11T19:08:58.346Z,11.90
2023-04-11T19:12:01.278Z,12.00
2023-04-11T19:15:04.968Z,12.20
2023-04-11T19:18:10.013Z,12.20
2023-04-11T19:21:14.182Z,12.10
2023-04-11T19:24:17.118Z,12.10
2023-04-11T19:27:21.500Z,12.10
2023-04-11T19:30:24.453Z,12.10
2023-04-11T19:33:27.279Z,12.00
2023-04-11T19:36:31.561Z,12.10
2023-04-11T19:39:38.047Z,12.10
2023-04-11T19:42:41.528Z,12.10
2023-04-11T19:45:44.872Z,12.10
2023-04-11T19:48:47.972Z,12.00
2023-04-11T19:51:52.456Z,11.90
2023-04-11T19:54:55.533Z,11.80
2023-04-11T19:57:58.400Z,11.80
2023-04-11T20:01:01.213Z,11.80
2023-04-11T20:04:04.819Z,11.70
2023-04-11T20:07:09.161Z,11.60
2023-04-11T20:10:12.940Z,11.50
2023-04-11T20:13:16.567Z,11.50
2023-04-11T20:16:22.036Z,11.40
2023-04-11T20:19:27.576Z,11.40
2023-04-11T20:22:31.725Z,11.20
2023-04-11T20:25:35.486Z,11.30
2023-04-11T20:28:39.439Z,11.20
2023-04-11T20:31:42.264Z,11.20
2023-04-11T20:34:45.256Z,11.20
2023-04-11T20:37:49.840Z,11.10
2023-04-11T20:40:52.699Z,11.10
2023-04-11T20:43:56.480Z,11.10
2023-04-11T20:46:59.473Z,11.00
2023-04-11T20:50:04.172Z,10.90
2023-04-11T20:53:08.570Z,10.90
2023-04-11T20:56:11.815Z,10.90
2023-04-11T20:59:14.621Z,10.80
2023-04-11T21:02:17.646Z,10.80
2023-04-11T21:05:22.029Z,10.80
2023-04-11T21:08:26.389Z,10.70
2023-04-11T21:11:29.204Z,10.70
2023-04-11T21:14:33.155Z,10.70
2023-04-11T21:17:39.283Z,10.60
2023-04-11T21:20:42.307Z,10.60
2023-04-11T21:23:46.462Z,10.60
2023-04-11T21:26:49.277Z,10.50
2023-04-11T21:29:52.088Z,10.50
2023-04-11T21:32:55.043Z,10.50
2023-04-11T21:35:57.963Z,10.40
2023-04-11T21:39:02.150Z,10.40
2023-04-11T21:42:05.171Z,10.30
2023-04-11T21:45:09.500Z,10.30
2023-04-11T21:48:12.434Z,10.20
2023-04-11T21:51:16.831Z,10.10
2023-04-11T21:54:21.177Z,10.10
2023-04-11T21:57:23.973Z,10.10
2023-04-11T22:00:27.164Z,10.10
2023-04-11T22:03:30.863Z,10.10
2023-04-11T22:06:33.978Z,10.00
2023-04-11T22:09:38.159Z,10.00
2023-04-11T22:12:42.074Z,9.90
2023-04-11T22:15:45.470Z,9.90
2023-04-11T22:18:48.986Z,9.80
2023-04-11T22:21:55.460Z,9.90
2023-04-11T22:25:00.942Z,9.90
2023-04-11T22:28:04.100Z,9.90
2023-04-11T22:31:07.622Z,9.90
2023-04-11T22:34:10.445Z,9.90
2023-04-11T22:37:13.378Z,9.90
2023-04-11T22:40:22.134Z,9.90
2023-04-11T22:43:25.052Z,9.70
2023-04-11T22:46:28.375Z,9.70
2023-04-11T22:49:32.246Z,9.70
2023-04-11T22:52:35.464Z,9.70
2023-04-11T22:55:39.968Z,9.60
2023-04-11T22:58:42.984Z,9.70
2023-04-11T23:01:45.939Z,9.70
2023-04-11T23:04:48.798Z,9.60
2023-04-11T23:07:51.694Z,9.70
2023-04-11T23:10:55.841Z,9.70
2023-04-11T23:13:59.197Z,9.60
2023-04-11T23:17:02.443Z,9.60
2023-04-11T23:20:12.708Z,9.50
2023-04-11T23:23:15.719Z,9.50
2023-04-11T23:26:20.730Z,9.60
2023-04-11T23:29:23.566Z,9.60
2023-04-11T23:32:26.365Z,9.60
2023-04-11T23:35:31.476Z,9.60
2023-04-11T23:38:34.325Z,9.60
2023-04-11T23:41:38.469Z,9.60
2023-04-11T23:44:41.441Z,9.60
2023-04-11T23:47:44.742Z,9.60
2023-04-11T23:50:48.427Z,9.60
2023-04-11T23:53:51.297Z,9.60
2023-04-11T23:56:55.466Z,9.60
2023-04-11T23:59:58.284Z,9.60
